sensor_id;sensor_type;location;lat;lon;timestamp;temperature;humidity
16404;DHT22;8311;50.158;8.642;2023-12-20T00:01:24;19.10;50.80
16404;DHT22;8311;50.158;8.642;2023-12-20T00:04:19;19.10;50.80
16404;DHT22;8311;50.158;8.642;2023-12-20T00:07:13;19.10;50.80
16404;DHT22;8311;50.158;8.642;2023-12-20T00:10:09;19.00;50.80
16404;DHT22;8311;50.158;8.642;2023-12-20T00:13:04;19.00;50.80
16404;DHT22;8311;50.158;8.642;2023-12-20T00:15:59;19.00;50.90
16404;DHT22;8311;50.158;8.642;2023-12-20T00:18:52;19.00;50.90
16404;DHT22;8311;50.158;8.642;2023-12-20T00:21:46;19.00;50.90
16404;DHT22;8311;50.158;8.642;2023-12-20T00:24:40;19.00;50.90
16404;DHT22;8311;50.158;8.642;2023-12-20T00:27:33;19.00;50.90
16404;DHT22;8311;50.158;8.642;2023-12-20T00:30:26;19.00;51.60
16404;DHT22;8311;50.158;8.642;2023-12-20T00:33:20;19.00;51.00
16404;DHT22;8311;50.158;8.642;2023-12-20T00:36:13;19.00;51.00
16404;DHT22;8311;50.158;8.642;2023-12-20T00:39:06;18.90;50.90
16404;DHT22;8311;50.158;8.642;2023-12-20T00:42:01;19.00;50.90
16404;DHT22;8311;50.158;8.642;2023-12-20T00:44:55;19.00;51.50
16404;DHT22;8311;50.158;8.642;2023-12-20T00:47:48;19.00;50.80
16404;DHT22;8311;50.158;8.642;2023-12-20T00:50:43;19.00;50.80
16404;DHT22;8311;50.158;8.642;2023-12-20T00:53:36;19.00;50.80
16404;DHT22;8311;50.158;8.642;2023-12-20T00:56:29;19.10;50.80
16404;DHT22;8311;50.158;8.642;2023-12-20T00:59:23;19.10;50.80
16404;DHT22;8311;50.158;8.642;2023-12-20T01:02:16;19.10;50.70
16404;DHT22;8311;50.158;8.642;2023-12-20T01:05:09;19.10;50.80
16404;DHT22;8311;50.158;8.642;2023-12-20T01:08:02;19.10;50.80
16404;DHT22;8311;50.158;8.642;2023-12-20T01:10:55;19.20;50.80
16404;DHT22;8311;50.158;8.642;2023-12-20T01:13:48;19.10;50.80
16404;DHT22;8311;50.158;8.642;2023-12-20T01:16:42;19.10;50.80
16404;DHT22;8311;50.158;8.642;2023-12-20T01:19:36;19.10;50.80
16404;DHT22;8311;50.158;8.642;2023-12-20T01:22:29;19.10;50.90
16404;DHT22;8311;50.158;8.642;2023-12-20T01:25:23;19.10;50.90
16404;DHT22;8311;50.158;8.642;2023-12-20T01:28:16;19.10;50.90
16404;DHT22;8311;50.158;8.642;2023-12-20T01:31:09;19.10;50.90
16404;DHT22;8311;50.158;8.642;2023-12-20T01:34:04;19.10;50.90
16404;DHT22;8311;50.158;8.642;2023-12-20T01:36:57;19.00;50.90
16404;DHT22;8311;50.158;8.642;2023-12-20T01:39:50;19.00;50.90
16404;DHT22;8311;50.158;8.642;2023-12-20T01:42:44;19.00;51.00
16404;DHT22;8311;50.158;8.642;2023-12-20T01:45:37;19.00;51.00
16404;DHT22;8311;50.158;8.642;2023-12-20T01:48:31;19.00;51.00
16404;DHT22;8311;50.158;8.642;2023-12-20T01:51:27;19.00;51.00
16404;DHT22;8311;50.158;8.642;2023-12-20T01:54:20;19.00;51.00
16404;DHT22;8311;50.158;8.642;2023-12-20T01:57:14;19.00;51.00
16404;DHT22;8311;50.158;8.642;2023-12-20T02:00:10;19.00;51.00
16404;DHT22;8311;50.158;8.642;2023-12-20T02:03:04;18.90;51.00
16404;DHT22;8311;50.158;8.642;2023-12-20T02:05:58;19.00;51.00
16404;DHT22;8311;50.158;8.642;2023-12-20T02:08:52;19.00;50.90
16404;DHT22;8311;50.158;8.642;2023-12-20T02:11:47;19.00;50.90
16404;DHT22;8311;50.158;8.642;2023-12-20T02:14:40;19.00;50.90
16404;DHT22;8311;50.158;8.642;2023-12-20T02:17:33;19.10;50.80
16404;DHT22;8311;50.158;8.642;2023-12-20T02:20:26;19.10;50.90
16404;DHT22;8311;50.158;8.642;2023-12-20T02:23:20;19.10;50.90
16404;DHT22;8311;50.158;8.642;2023-12-20T02:26:13;19.10;50.80
16404;DHT22;8311;50.158;8.642;2023-12-20T02:29:07;19.10;50.80
16404;DHT22;8311;50.158;8.642;2023-12-20T02:32:02;19.10;50.90
16404;DHT22;8311;50.158;8.642;2023-12-20T02:34:55;19.10;50.90
16404;DHT22;8311;50.158;8.642;2023-12-20T02:37:49;19.10;50.90
16404;DHT22;8311;50.158;8.642;2023-12-20T02:40:43;19.10;50.90
16404;DHT22;8311;50.158;8.642;2023-12-20T02:43:41;19.10;50.90
16404;DHT22;8311;50.158;8.642;2023-12-20T02:46:37;19.10;50.90
16404;DHT22;8311;50.158;8.642;2023-12-20T02:49:30;19.10;50.90
16404;DHT22;8311;50.158;8.642;2023-12-20T02:52:23;19.10;51.00
16404;DHT22;8311;50.158;8.642;2023-12-20T02:55:17;19.00;51.00
16404;DHT22;8311;50.158;8.642;2023-12-20T02:58:13;19.00;50.90
16404;DHT22;8311;50.158;8.642;2023-12-20T03:01:06;19.00;51.00
16404;DHT22;8311;50.158;8.642;2023-12-20T03:03:59;19.00;51.00
16404;DHT22;8311;50.158;8.642;2023-12-20T03:06:52;19.00;51.00
16404;DHT22;8311;50.158;8.642;2023-12-20T03:09:45;19.00;51.00
16404;DHT22;8311;50.158;8.642;2023-12-20T03:12:58;19.00;51.10
16404;DHT22;8311;50.158;8.642;2023-12-20T03:15:53;19.00;51.10
16404;DHT22;8311;50.158;8.642;2023-12-20T03:18:46;19.00;51.10
16404;DHT22;8311;50.158;8.642;2023-12-20T03:21:39;18.90;51.10
16404;DHT22;8311;50.158;8.642;2023-12-20T03:24:32;18.90;51.10
16404;DHT22;8311;50.158;8.642;2023-12-20T03:27:25;18.90;51.00
16404;DHT22;8311;50.158;8.642;2023-12-20T03:30:18;19.00;51.00
16404;DHT22;8311;50.158;8.642;2023-12-20T03:33:12;19.00;51.00
16404;DHT22;8311;50.158;8.642;2023-12-20T03:36:05;19.00;50.90
16404;DHT22;8311;50.158;8.642;2023-12-20T03:38:58;19.00;50.90
16404;DHT22;8311;50.158;8.642;2023-12-20T03:41:51;19.10;50.90
16404;DHT22;8311;50.158;8.642;2023-12-20T03:44:44;19.10;50.90
16404;DHT22;8311;50.158;8.642;2023-12-20T03:47:37;19.10;50.90
16404;DHT22;8311;50.158;8.642;2023-12-20T03:50:32;19.10;50.90
16404;DHT22;8311;50.158;8.642;2023-12-20T03:53:26;19.10;50.90
16404;DHT22;8311;50.158;8.642;2023-12-20T03:56:20;19.10;50.90
16404;DHT22;8311;50.158;8.642;2023-12-20T03:59:14;19.10;50.90
16404;DHT22;8311;50.158;8.642;2023-12-20T04:02:07;19.10;50.90
16404;DHT22;8311;50.158;8.642;2023-12-20T04:05:00;19.10;50.90
16404;DHT22;8311;50.158;8.642;2023-12-20T04:07:54;19.10;50.90
16404;DHT22;8311;50.158;8.642;2023-12-20T04:10:49;19.10;50.90
16404;DHT22;8311;50.158;8.642;2023-12-20T04:13:42;19.10;51.00
16404;DHT22;8311;50.158;8.642;2023-12-20T04:16:35;19.10;51.00
16404;DHT22;8311;50.158;8.642;2023-12-20T04:19:28;19.00;51.00
16404;DHT22;8311;50.158;8.642;2023-12-20T04:22:21;19.10;51.10
16404;DHT22;8311;50.158;8.642;2023-12-20T04:25:17;19.10;51.10
16404;DHT22;8311;50.158;8.642;2023-12-20T04:28:10;19.00;51.00
16404;DHT22;8311;50.158;8.642;2023-12-20T04:31:03;19.00;51.10
16404;DHT22;8311;50.158;8.642;2023-12-20T04:33:56;19.00;51.10
16404;DHT22;8311;50.158;8.642;2023-12-20T04:36:49;19.00;51.10
16404;DHT22;8311;50.158;8.642;2023-12-20T04:39:44;19.00;51.10
16404;DHT22;8311;50.158;8.642;2023-12-20T04:42:38;19.00;51.20
16404;DHT22;8311;50.158;8.642;2023-12-20T04:45:32;19.00;51.20
16404;DHT22;8311;50.158;8.642;2023-12-20T04:48:25;18.90;51.10
16404;DHT22;8311;50.158;8.642;2023-12-20T04:51:19;19.00;51.20
16404;DHT22;8311;50.158;8.642;2023-12-20T04:54:12;19.00;51.10
16404;DHT22;8311;50.158;8.642;2023-12-20T04:57:06;19.00;51.10
16404;DHT22;8311;50.158;8.642;2023-12-20T05:00:01;19.00;51.00
16404;DHT22;8311;50.158;8.642;2023-12-20T05:02:55;19.00;51.00
16404;DHT22;8311;50.158;8.642;2023-12-20T05:05:51;19.10;51.00
16404;DHT22;8311;50.158;8.642;2023-12-20T05:08:44;19.10;51.00
16404;DHT22;8311;50.158;8.642;2023-12-20T05:11:37;19.10;51.00
16404;DHT22;8311;50.158;8.642;2023-12-20T05:14:31;19.10;51.00
16404;DHT22;8311;50.158;8.642;2023-12-20T05:17:26;19.20;51.00
16404;DHT22;8311;50.158;8.642;2023-12-20T05:20:19;19.10;51.00
16404;DHT22;8311;50.158;8.642;2023-12-20T05:23:12;19.10;51.00
16404;DHT22;8311;50.158;8.642;2023-12-20T05:26:05;19.10;51.00
16404;DHT22;8311;50.158;8.642;2023-12-20T05:28:58;19.20;51.00
16404;DHT22;8311;50.158;8.642;2023-12-20T05:31:51;19.10;51.00
16404;DHT22;8311;50.158;8.642;2023-12-20T05:34:47;19.10;51.10
16404;DHT22;8311;50.158;8.642;2023-12-20T05:37:40;19.10;51.10
16404;DHT22;8311;50.158;8.642;2023-12-20T05:40:34;19.10;51.10
16404;DHT22;8311;50.158;8.642;2023-12-20T05:43:27;19.10;51.10
16404;DHT22;8311;50.158;8.642;2023-12-20T05:46:21;19.10;51.10
16404;DHT22;8311;50.158;8.642;2023-12-20T05:49:14;19.00;51.10
16404;DHT22;8311;50.158;8.642;2023-12-20T05:52:10;19.00;51.70
16404;DHT22;8311;50.158;8.642;2023-12-20T05:55:03;19.00;51.10
16404;DHT22;8311;50.158;8.642;2023-12-20T05:57:58;19.00;51.20
16404;DHT22;8311;50.158;8.642;2023-12-20T06:00:53;19.00;51.10
16404;DHT22;8311;50.158;8.642;2023-12-20T06:03:46;19.00;51.20
16404;DHT22;8311;50.158;8.642;2023-12-20T06:06:42;19.00;51.20
16404;DHT22;8311;50.158;8.642;2023-12-20T06:09:39;19.00;51.20
16404;DHT22;8311;50.158;8.642;2023-12-20T06:12:32;19.00;51.20
16404;DHT22;8311;50.158;8.642;2023-12-20T06:15:27;18.90;51.20
16404;DHT22;8311;50.158;8.642;2023-12-20T06:18:20;19.00;51.20
16404;DHT22;8311;50.158;8.642;2023-12-20T06:21:14;19.00;51.20
16404;DHT22;8311;50.158;8.642;2023-12-20T06:24:07;19.00;51.10
16404;DHT22;8311;50.158;8.642;2023-12-20T06:27:03;19.00;51.10
16404;DHT22;8311;50.158;8.642;2023-12-20T06:29:56;19.00;51.10
16404;DHT22;8311;50.158;8.642;2023-12-20T06:32:49;19.00;51.00
16404;DHT22;8311;50.158;8.642;2023-12-20T06:35:42;19.10;51.10
16404;DHT22;8311;50.158;8.642;2023-12-20T06:38:35;19.10;51.10
16404;DHT22;8311;50.158;8.642;2023-12-20T06:41:28;19.20;51.10
16404;DHT22;8311;50.158;8.642;2023-12-20T06:44:24;19.10;51.00
16404;DHT22;8311;50.158;8.642;2023-12-20T06:47:17;19.20;51.10
16404;DHT22;8311;50.158;8.642;2023-12-20T06:50:12;19.10;51.10
16404;DHT22;8311;50.158;8.642;2023-12-20T06:53:07;19.20;51.10
16404;DHT22;8311;50.158;8.642;2023-12-20T06:55:59;19.20;51.10
16404;DHT22;8311;50.158;8.642;2023-12-20T06:58:53;19.10;51.10
16404;DHT22;8311;50.158;8.642;2023-12-20T07:01:49;19.10;51.10
16404;DHT22;8311;50.158;8.642;2023-12-20T07:04:43;19.10;51.20
16404;DHT22;8311;50.158;8.642;2023-12-20T07:07:36;19.10;51.20
16404;DHT22;8311;50.158;8.642;2023-12-20T07:10:30;19.10;51.20
16404;DHT22;8311;50.158;8.642;2023-12-20T07:13:23;19.10;51.20
16404;DHT22;8311;50.158;8.642;2023-12-20T07:16:16;19.10;51.30
16404;DHT22;8311;50.158;8.642;2023-12-20T07:19:10;19.00;51.20
16404;DHT22;8311;50.158;8.642;2023-12-20T07:22:05;19.00;51.20
16404;DHT22;8311;50.158;8.642;2023-12-20T07:24:59;19.00;51.20
16404;DHT22;8311;50.158;8.642;2023-12-20T07:27:52;19.00;51.30
16404;DHT22;8311;50.158;8.642;2023-12-20T07:30:45;19.00;51.30
16404;DHT22;8311;50.158;8.642;2023-12-20T07:33:39;19.00;51.40
16404;DHT22;8311;50.158;8.642;2023-12-20T07:36:33;19.00;51.40
16404;DHT22;8311;50.158;8.642;2023-12-20T07:39:27;18.90;51.40
16404;DHT22;8311;50.158;8.642;2023-12-20T07:42:19;18.90;51.30
16404;DHT22;8311;50.158;8.642;2023-12-20T07:45:14;18.90;51.30
16404;DHT22;8311;50.158;8.642;2023-12-20T07:48:07;19.00;51.30
16404;DHT22;8311;50.158;8.642;2023-12-20T07:51:01;19.00;51.30
16404;DHT22;8311;50.158;8.642;2023-12-20T07:53:56;19.00;51.20
16404;DHT22;8311;50.158;8.642;2023-12-20T07:56:49;19.00;51.20
16404;DHT22;8311;50.158;8.642;2023-12-20T07:59:43;19.10;51.20
16404;DHT22;8311;50.158;8.642;2023-12-20T08:02:36;19.10;51.20
16404;DHT22;8311;50.158;8.642;2023-12-20T08:05:30;19.10;51.20
16404;DHT22;8311;50.158;8.642;2023-12-20T08:08:22;19.20;51.20
16404;DHT22;8311;50.158;8.642;2023-12-20T08:11:18;19.10;51.10
16404;DHT22;8311;50.158;8.642;2023-12-20T08:14:12;19.10;51.20
16404;DHT22;8311;50.158;8.642;2023-12-20T08:17:06;19.10;51.20
16404;DHT22;8311;50.158;8.642;2023-12-20T08:19:59;19.10;51.20
16404;DHT22;8311;50.158;8.642;2023-12-20T08:22:53;19.10;51.20
16404;DHT22;8311;50.158;8.642;2023-12-20T08:25:46;19.10;51.20
16404;DHT22;8311;50.158;8.642;2023-12-20T08:28:44;19.10;51.20
16404;DHT22;8311;50.158;8.642;2023-12-20T08:31:37;19.10;51.30
16404;DHT22;8311;50.158;8.642;2023-12-20T08:34:30;19.10;51.30
16404;DHT22;8311;50.158;8.642;2023-12-20T08:37:23;19.10;51.30
16404;DHT22;8311;50.158;8.642;2023-12-20T08:40:17;19.10;51.30
16404;DHT22;8311;50.158;8.642;2023-12-20T08:43:09;19.10;51.30
16404;DHT22;8311;50.158;8.642;2023-12-20T08:46:06;19.10;51.40
16404;DHT22;8311;50.158;8.642;2023-12-20T08:49:02;19.10;51.50
16404;DHT22;8311;50.158;8.642;2023-12-20T08:51:55;19.10;54.00
16404;DHT22;8311;50.158;8.642;2023-12-20T08:54:49;19.10;51.30
16404;DHT22;8311;50.158;8.642;2023-12-20T08:57:46;19.10;51.10
16404;DHT22;8311;50.158;8.642;2023-12-20T09:00:40;19.20;51.20
16404;DHT22;8311;50.158;8.642;2023-12-20T09:03:36;19.30;51.20
16404;DHT22;8311;50.158;8.642;2023-12-20T09:06:29;19.40;51.30
16404;DHT22;8311;50.158;8.642;2023-12-20T09:09:23;19.40;51.40
16404;DHT22;8311;50.158;8.642;2023-12-20T09:12:17;19.30;51.50
16404;DHT22;8311;50.158;8.642;2023-12-20T09:15:10;19.40;51.70
16404;DHT22;8311;50.158;8.642;2023-12-20T09:18:04;19.40;51.80
16404;DHT22;8311;50.158;8.642;2023-12-20T09:20:58;19.40;51.70
16404;DHT22;8311;50.158;8.642;2023-12-20T09:23:51;19.40;51.80
16404;DHT22;8311;50.158;8.642;2023-12-20T09:26:44;19.40;51.90
16404;DHT22;8311;50.158;8.642;2023-12-20T09:29:37;19.40;52.00
16404;DHT22;8311;50.158;8.642;2023-12-20T09:32:31;19.40;51.90
16404;DHT22;8311;50.158;8.642;2023-12-20T09:35:24;19.40;51.90
16404;DHT22;8311;50.158;8.642;2023-12-20T09:38:20;19.40;52.00
16404;DHT22;8311;50.158;8.642;2023-12-20T09:41:15;19.40;52.00
16404;DHT22;8311;50.158;8.642;2023-12-20T09:44:13;19.40;52.00
16404;DHT22;8311;50.158;8.642;2023-12-20T09:47:06;19.40;52.00
16404;DHT22;8311;50.158;8.642;2023-12-20T09:50:02;19.40;52.10
16404;DHT22;8311;50.158;8.642;2023-12-20T09:52:56;19.40;52.10
16404;DHT22;8311;50.158;8.642;2023-12-20T09:55:53;19.30;52.10
16404;DHT22;8311;50.158;8.642;2023-12-20T09:58:47;19.30;52.10
16404;DHT22;8311;50.158;8.642;2023-12-20T10:01:41;19.20;52.00
16404;DHT22;8311;50.158;8.642;2023-12-20T10:04:35;19.20;52.00
16404;DHT22;8311;50.158;8.642;2023-12-20T10:07:28;19.20;52.00
16404;DHT22;8311;50.158;8.642;2023-12-20T10:10:23;19.20;52.00
16404;DHT22;8311;50.158;8.642;2023-12-20T10:13:34;19.20;52.00
16404;DHT22;8311;50.158;8.642;2023-12-20T10:16:28;19.10;52.00
16404;DHT22;8311;50.158;8.642;2023-12-20T10:19:21;19.10;52.00
16404;DHT22;8311;50.158;8.642;2023-12-20T10:22:15;19.10;51.90
16404;DHT22;8311;50.158;8.642;2023-12-20T10:25:08;19.00;51.90
16404;DHT22;8311;50.158;8.642;2023-12-20T10:28:09;19.00;51.90
16404;DHT22;8311;50.158;8.642;2023-12-20T10:31:05;19.00;52.00
16404;DHT22;8311;50.158;8.642;2023-12-20T10:33:59;19.00;51.90
16404;DHT22;8311;50.158;8.642;2023-12-20T10:36:52;19.00;51.90
16404;DHT22;8311;50.158;8.642;2023-12-20T10:39:48;19.00;51.90
16404;DHT22;8311;50.158;8.642;2023-12-20T10:42:43;19.00;51.90
16404;DHT22;8311;50.158;8.642;2023-12-20T10:45:37;19.00;51.90
16404;DHT22;8311;50.158;8.642;2023-12-20T10:48:32;19.00;51.90
16404;DHT22;8311;50.158;8.642;2023-12-20T10:51:26;19.00;51.80
16404;DHT22;8311;50.158;8.642;2023-12-20T10:54:22;19.10;51.80
16404;DHT22;8311;50.158;8.642;2023-12-20T10:57:18;19.20;52.40
16404;DHT22;8311;50.158;8.642;2023-12-20T11:00:14;19.30;51.80
16404;DHT22;8311;50.158;8.642;2023-12-20T11:03:09;19.30;52.00
16404;DHT22;8311;50.158;8.642;2023-12-20T11:06:10;19.40;52.00
16404;DHT22;8311;50.158;8.642;2023-12-20T11:09:13;19.40;51.90
16404;DHT22;8311;50.158;8.642;2023-12-20T11:12:12;19.50;51.90
16404;DHT22;8311;50.158;8.642;2023-12-20T11:15:06;19.50;51.90
16404;DHT22;8311;50.158;8.642;2023-12-20T11:18:01;19.50;51.90
16404;DHT22;8311;50.158;8.642;2023-12-20T11:20:54;19.60;51.90
16404;DHT22;8311;50.158;8.642;2023-12-20T11:23:50;19.60;51.80
16404;DHT22;8311;50.158;8.642;2023-12-20T11:26:47;19.60;51.80
16404;DHT22;8311;50.158;8.642;2023-12-20T11:29:51;19.60;51.80
16404;DHT22;8311;50.158;8.642;2023-12-20T11:32:46;19.60;51.80
16404;DHT22;8311;50.158;8.642;2023-12-20T11:35:40;19.60;51.80
16404;DHT22;8311;50.158;8.642;2023-12-20T11:38:36;19.60;51.70
16404;DHT22;8311;50.158;8.642;2023-12-20T11:41:32;19.60;51.70
16404;DHT22;8311;50.158;8.642;2023-12-20T11:44:26;19.60;51.70
16404;DHT22;8311;50.158;8.642;2023-12-20T11:47:22;19.60;51.70
16404;DHT22;8311;50.158;8.642;2023-12-20T11:50:16;19.60;51.70
16404;DHT22;8311;50.158;8.642;2023-12-20T11:53:10;19.60;51.70
16404;DHT22;8311;50.158;8.642;2023-12-20T11:56:04;19.60;51.70
16404;DHT22;8311;50.158;8.642;2023-12-20T11:59:00;19.60;51.70
16404;DHT22;8311;50.158;8.642;2023-12-20T12:02:12;19.60;52.30
16404;DHT22;8311;50.158;8.642;2023-12-20T12:05:07;19.60;51.70
16404;DHT22;8311;50.158;8.642;2023-12-20T12:08:00;19.60;51.70
16404;DHT22;8311;50.158;8.642;2023-12-20T12:10:57;19.60;51.70
16404;DHT22;8311;50.158;8.642;2023-12-20T12:13:50;19.60;51.70
16404;DHT22;8311;50.158;8.642;2023-12-20T12:16:45;19.60;51.70
16404;DHT22;8311;50.158;8.642;2023-12-20T12:19:39;19.60;51.70
16404;DHT22;8311;50.158;8.642;2023-12-20T12:22:33;19.60;51.60
16404;DHT22;8311;50.158;8.642;2023-12-20T12:25:29;19.70;51.40
16404;DHT22;8311;50.158;8.642;2023-12-20T12:28:26;19.60;51.40
16404;DHT22;8311;50.158;8.642;2023-12-20T12:31:19;19.70;51.40
16404;DHT22;8311;50.158;8.642;2023-12-20T12:34:14;19.70;51.40
16404;DHT22;8311;50.158;8.642;2023-12-20T12:37:09;19.70;51.30
16404;DHT22;8311;50.158;8.642;2023-12-20T12:40:06;19.70;51.30
16404;DHT22;8311;50.158;8.642;2023-12-20T12:42:59;19.70;51.30
16404;DHT22;8311;50.158;8.642;2023-12-20T12:45:53;19.70;51.40
16404;DHT22;8311;50.158;8.642;2023-12-20T12:48:47;19.70;51.30
16404;DHT22;8311;50.158;8.642;2023-12-20T12:51:44;19.70;51.30
16404;DHT22;8311;50.158;8.642;2023-12-20T12:54:39;19.70;51.40
16404;DHT22;8311;50.158;8.642;2023-12-20T12:57:33;19.60;51.40
16404;DHT22;8311;50.158;8.642;2023-12-20T13:00:27;19.70;51.40
16404;DHT22;8311;50.158;8.642;2023-12-20T13:03:20;19.70;51.40
16404;DHT22;8311;50.158;8.642;2023-12-20T13:06:17;19.70;51.40
16404;DHT22;8311;50.158;8.642;2023-12-20T13:09:12;19.70;51.40
16404;DHT22;8311;50.158;8.642;2023-12-20T13:12:08;19.70;51.40
16404;DHT22;8311;50.158;8.642;2023-12-20T13:15:01;19.70;51.50
16404;DHT22;8311;50.158;8.642;2023-12-20T13:17:55;19.60;51.40
16404;DHT22;8311;50.158;8.642;2023-12-20T13:20:49;19.60;51.50
16404;DHT22;8311;50.158;8.642;2023-12-20T13:23:42;19.60;51.50
16404;DHT22;8311;50.158;8.642;2023-12-20T13:26:37;19.60;51.50
16404;DHT22;8311;50.158;8.642;2023-12-20T13:29:32;19.60;51.50
16404;DHT22;8311;50.158;8.642;2023-12-20T13:32:27;19.60;51.50
16404;DHT22;8311;50.158;8.642;2023-12-20T13:35:21;19.60;51.30
16404;DHT22;8311;50.158;8.642;2023-12-20T13:38:14;19.60;50.70
16404;DHT22;8311;50.158;8.642;2023-12-20T13:41:08;19.60;50.00
16404;DHT22;8311;50.158;8.642;2023-12-20T13:44:02;19.60;49.90
16404;DHT22;8311;50.158;8.642;2023-12-20T13:46:56;19.60;49.90
16404;DHT22;8311;50.158;8.642;2023-12-20T13:49:48;19.60;49.80
16404;DHT22;8311;50.158;8.642;2023-12-20T13:52:44;19.60;49.90
16404;DHT22;8311;50.158;8.642;2023-12-20T13:55:37;19.60;50.50
16404;DHT22;8311;50.158;8.642;2023-12-20T13:58:33;19.60;50.00
16404;DHT22;8311;50.158;8.642;2023-12-20T14:01:30;19.60;50.00
16404;DHT22;8311;50.158;8.642;2023-12-20T14:04:24;19.60;50.00
16404;DHT22;8311;50.158;8.642;2023-12-20T14:07:34;19.60;50.10
16404;DHT22;8311;50.158;8.642;2023-12-20T14:10:28;19.60;50.10
16404;DHT22;8311;50.158;8.642;2023-12-20T14:13:21;19.60;50.20
16404;DHT22;8311;50.158;8.642;2023-12-20T14:16:15;19.60;50.20
16404;DHT22;8311;50.158;8.642;2023-12-20T14:19:10;19.60;50.30
16404;DHT22;8311;50.158;8.642;2023-12-20T14:22:03;19.60;50.30
16404;DHT22;8311;50.158;8.642;2023-12-20T14:24:57;19.50;50.30
16404;DHT22;8311;50.158;8.642;2023-12-20T14:27:50;19.60;50.40
16404;DHT22;8311;50.158;8.642;2023-12-20T14:30:44;19.60;50.60
16404;DHT22;8311;50.158;8.642;2023-12-20T14:33:37;19.50;50.60
16404;DHT22;8311;50.158;8.642;2023-12-20T14:36:32;19.50;50.80
16404;DHT22;8311;50.158;8.642;2023-12-20T14:39:27;19.50;50.90
16404;DHT22;8311;50.158;8.642;2023-12-20T14:42:20;19.50;51.10
16404;DHT22;8311;50.158;8.642;2023-12-20T14:45:16;19.50;51.20
16404;DHT22;8311;50.158;8.642;2023-12-20T14:48:09;19.50;51.30
16404;DHT22;8311;50.158;8.642;2023-12-20T14:51:03;19.50;51.30
16404;DHT22;8311;50.158;8.642;2023-12-20T14:54:00;19.50;51.40
16404;DHT22;8311;50.158;8.642;2023-12-20T14:56:54;19.50;51.40
16404;DHT22;8311;50.158;8.642;2023-12-20T14:59:56;19.50;51.40
16404;DHT22;8311;50.158;8.642;2023-12-20T15:02:49;19.50;51.50
16404;DHT22;8311;50.158;8.642;2023-12-20T15:05:44;19.50;51.50
16404;DHT22;8311;50.158;8.642;2023-12-20T15:08:39;19.50;52.10
16404;DHT22;8311;50.158;8.642;2023-12-20T15:11:34;19.50;51.60
16404;DHT22;8311;50.158;8.642;2023-12-20T15:14:28;19.50;51.60
16404;DHT22;8311;50.158;8.642;2023-12-20T15:17:21;19.50;51.60
16404;DHT22;8311;50.158;8.642;2023-12-20T15:20:13;19.50;51.60
16404;DHT22;8311;50.158;8.642;2023-12-20T15:23:08;19.50;51.60
16404;DHT22;8311;50.158;8.642;2023-12-20T15:26:00;19.50;51.60
16404;DHT22;8311;50.158;8.642;2023-12-20T15:28:55;19.50;51.60
16404;DHT22;8311;50.158;8.642;2023-12-20T15:31:49;19.50;51.70
16404;DHT22;8311;50.158;8.642;2023-12-20T15:34:42;19.50;51.60
16404;DHT22;8311;50.158;8.642;2023-12-20T15:37:34;19.50;51.60
16404;DHT22;8311;50.158;8.642;2023-12-20T15:40:30;19.50;51.60
16404;DHT22;8311;50.158;8.642;2023-12-20T15:43:23;19.50;51.60
16404;DHT22;8311;50.158;8.642;2023-12-20T15:46:19;19.50;51.60
16404;DHT22;8311;50.158;8.642;2023-12-20T15:49:13;19.50;51.60
16404;DHT22;8311;50.158;8.642;2023-12-20T15:52:08;19.50;51.60
16404;DHT22;8311;50.158;8.642;2023-12-20T15:55:01;19.50;51.60
16404;DHT22;8311;50.158;8.642;2023-12-20T15:57:56;19.50;51.60
16404;DHT22;8311;50.158;8.642;2023-12-20T16:00:50;19.50;51.70
16404;DHT22;8311;50.158;8.642;2023-12-20T16:03:45;19.50;51.70
16404;DHT22;8311;50.158;8.642;2023-12-20T16:06:50;19.50;51.60
16404;DHT22;8311;50.158;8.642;2023-12-20T16:09:46;19.50;51.70
16404;DHT22;8311;50.158;8.642;2023-12-20T16:12:40;19.50;51.70
16404;DHT22;8311;50.158;8.642;2023-12-20T16:15:33;19.50;51.70
16404;DHT22;8311;50.158;8.642;2023-12-20T16:18:26;19.50;51.70
16404;DHT22;8311;50.158;8.642;2023-12-20T16:21:21;19.50;51.70
16404;DHT22;8311;50.158;8.642;2023-12-20T16:24:15;19.50;51.70
16404;DHT22;8311;50.158;8.642;2023-12-20T16:27:09;19.50;51.70
16404;DHT22;8311;50.158;8.642;2023-12-20T16:30:03;19.50;51.70
16404;DHT22;8311;50.158;8.642;2023-12-20T16:32:57;19.50;51.70
16404;DHT22;8311;50.158;8.642;2023-12-20T16:35:50;19.50;51.70
16404;DHT22;8311;50.158;8.642;2023-12-20T16:38:46;19.50;51.60
16404;DHT22;8311;50.158;8.642;2023-12-20T16:41:40;19.50;51.60
16404;DHT22;8311;50.158;8.642;2023-12-20T16:44:33;19.50;51.60
16404;DHT22;8311;50.158;8.642;2023-12-20T16:47:27;19.50;51.60
16404;DHT22;8311;50.158;8.642;2023-12-20T16:50:22;19.50;51.60
16404;DHT22;8311;50.158;8.642;2023-12-20T16:53:16;19.50;51.60
16404;DHT22;8311;50.158;8.642;2023-12-20T16:56:10;19.50;51.60
16404;DHT22;8311;50.158;8.642;2023-12-20T16:59:05;19.50;51.50
16404;DHT22;8311;50.158;8.642;2023-12-20T17:01:58;19.50;51.50
16404;DHT22;8311;50.158;8.642;2023-12-20T17:04:54;19.50;51.50
16404;DHT22;8311;50.158;8.642;2023-12-20T17:07:47;19.50;51.40
16404;DHT22;8311;50.158;8.642;2023-12-20T17:10:41;19.50;51.40
16404;DHT22;8311;50.158;8.642;2023-12-20T17:13:35;19.50;51.40
16404;DHT22;8311;50.158;8.642;2023-12-20T17:16:29;19.40;51.00
16404;DHT22;8311;50.158;8.642;2023-12-20T17:19:23;19.40;51.10
16404;DHT22;8311;50.158;8.642;2023-12-20T17:22:17;19.30;50.30
16404;DHT22;8311;50.158;8.642;2023-12-20T17:25:11;19.30;49.60
16404;DHT22;8311;50.158;8.642;2023-12-20T17:28:07;19.30;49.80
16404;DHT22;8311;50.158;8.642;2023-12-20T17:31:01;19.20;49.60
16404;DHT22;8311;50.158;8.642;2023-12-20T17:33:55;19.20;49.60
16404;DHT22;8311;50.158;8.642;2023-12-20T17:36:48;19.20;49.60
16404;DHT22;8311;50.158;8.642;2023-12-20T17:39:43;19.10;49.80
16404;DHT22;8311;50.158;8.642;2023-12-20T17:42:37;19.10;49.70
16404;DHT22;8311;50.158;8.642;2023-12-20T17:45:30;19.10;49.60
16404;DHT22;8311;50.158;8.642;2023-12-20T17:48:24;19.10;49.80
16404;DHT22;8311;50.158;8.642;2023-12-20T17:51:19;19.10;50.00
16404;DHT22;8311;50.158;8.642;2023-12-20T17:54:13;19.10;50.10
16404;DHT22;8311;50.158;8.642;2023-12-20T17:57:07;19.10;50.20
16404;DHT22;8311;50.158;8.642;2023-12-20T18:00:11;19.10;50.30
16404;DHT22;8311;50.158;8.642;2023-12-20T18:03:04;19.10;50.30
16404;DHT22;8311;50.158;8.642;2023-12-20T18:06:00;19.10;50.40
16404;DHT22;8311;50.158;8.642;2023-12-20T18:08:53;19.00;50.30
16404;DHT22;8311;50.158;8.642;2023-12-20T18:11:47;19.00;50.90
16404;DHT22;8311;50.158;8.642;2023-12-20T18:14:40;19.10;50.50
16404;DHT22;8311;50.158;8.642;2023-12-20T18:17:37;19.00;50.40
16404;DHT22;8311;50.158;8.642;2023-12-20T18:20:31;19.00;50.40
16404;DHT22;8311;50.158;8.642;2023-12-20T18:23:26;19.00;50.50
16404;DHT22;8311;50.158;8.642;2023-12-20T18:26:20;19.00;50.60
16404;DHT22;8311;50.158;8.642;2023-12-20T18:29:13;19.00;50.60
16404;DHT22;8311;50.158;8.642;2023-12-20T18:32:07;19.00;50.60
16404;DHT22;8311;50.158;8.642;2023-12-20T18:35:01;19.00;50.60
16404;DHT22;8311;50.158;8.642;2023-12-20T18:37:53;19.00;50.70